Latest Weather Observations for Scone Airport

IDN60801

Issued at 2:03 pm EST Wednesday 24 August 2016 (issued every 30 minutes, with the page automatically refreshed every 10 minutes)

About weather observations | Map of weather stations | Latest weather observations for NSW | Other Formats
Station Details ID: 061363 Name: SCONE AIRPORT AWS Lat: -32.03 Lon: 150.83 Height: 221.4 m
Data from the previous 72 hours. | See also: Recent months at Scone Airport
Date/Time
EST
Temp
°C
App
Temp
°C
Dew
Point
°C
Rel
Hum
%
Delta-T
°C
Wind Press
QNH
hPa
Press
MSL
hPa
Rain since
9am
mm
Dir  Spd
km/h
Gust
km/h
Spd
kts
Gust
kts
24/02:00pm 12.1 10.5 11.6 97 0.3 S 11 13 6 7 1007.4 1007.4 0.6
24/01:30pm 12.0 10.5 11.8 99 0.1 S 11 15 6 8 1007.4 1007.4 0.6
24/01:00pm 11.9 10.3 11.7 99 0.1 S 11 15 6 8 1008.1 1008.2 0.6
24/12:30pm 11.8 9.8 11.6 99 0.1 S 13 17 7 9 1008.0 1008.0 0.4
24/12:00pm 11.6 9.6 11.4 99 0.1 S 13 19 7 10 1009.1 1009.2 0.0
24/11:30am 11.8 9.8 11.6 99 0.1 S 13 17 7 9 1009.2 1009.3 0.0
24/11:00am 11.4 9.3 11.2 99 0.1 SSE 13 17 7 9 1010.1 1010.2 0.0
24/10:30am 11.8 9.8 11.6 99 0.1 SSE 13 17 7 9 1010.2 1010.3 0.0
24/10:00am 10.7 7.7 10.5 99 0.1 SSE 17 20 9 11 1011.0 1011.1 0.0
24/09:30am 10.5 8.5 10.3 99 0.1 SSE 11 15 6 8 1012.2 1012.3 0.0
24/09:00am 10.4 8.0 10.2 99 0.1 SSE 13 17 7 9 1012.5 1012.6 1.8
24/08:30am 10.3 7.5 10.1 99 0.1 SSE 15 19 8 10 1011.6 1011.7 1.8
24/08:00am 10.2 7.4 10.1 99 0.1 S 15 19 8 10 1012.0 1012.1 1.4
24/07:30am 10.1 8.1 10.0 99 0.1 S 11 13 6 7 1012.4 1012.5 1.4
24/07:00am 10.1 7.7 10.0 99 0.1 SE 13 17 7 9 1011.6 1011.7 1.2
24/06:30am 10.1 7.3 10.0 99 0.1 S 15 19 8 10 1012.2 1012.3 1.2
24/06:00am 10.1 7.7 10.0 99 0.1 S 13 17 7 9 1012.3 1012.4 1.2
24/05:30am 10.1 8.4 10.0 99 0.1 S 9 15 5 8 1012.2 1012.3 1.2
24/05:00am 10.1 7.3 10.0 99 0.1 S 15 19 8 10 1011.4 1011.5 1.0
24/04:30am 10.2 8.2 10.1 99 0.1 SSE 11 15 6 8 1012.1 1012.2 1.0
24/04:00am 10.3 8.7 10.1 99 0.1 S 9 13 5 7 1012.5 1012.6 0.6
24/03:30am 10.5 8.1 10.0 97 0.3 S 13 17 7 9 1012.8 1012.9 0.4
24/03:00am 10.7 8.3 9.9 95 0.4 S 13 19 7 10 1012.6 1012.7 0.4
24/02:30am 11.0 8.5 9.8 92 0.6 S 13 19 7 10 1012.9 1013.0 0.0
24/02:00am 11.2 8.6 9.3 88 1.0 SSE 13 17 7 9 1012.8 1012.9 0.0
24/01:30am 11.5 8.3 8.4 81 1.5 S 15 20 8 11 1013.7 1013.8 0.0
24/01:00am 11.5 8.2 8.2 80 1.6 S 15 17 8 9 1013.2 1013.3 0.0
24/12:30am 11.3 8.4 8.3 82 1.5 S 13 17 7 9 1012.9 1013.0 0.0
24/12:00am 11.3 8.8 8.3 82 1.5 S 11 15 6 8 1013.5 1013.6 0.0
 
Date/Time
EST
Temp
°C
App
Temp
°C
Dew
Point
°C
Rel
Hum
%
Delta-T
°C
Wind Press
QNH
hPa
Press
MSL
hPa
Rain since
9am
mm
Dir  Spd
km/h
Gust
km/h
Spd
kts
Gust
kts
23/11:30pm 11.2 9.5 8.2 82 1.5 S 7 9 4 5 1014.1 1014.2 0.0
23/11:00pm 11.2 9.1 8.4 83 1.4 SSE 9 13 5 7 1014.1 1014.2 0.0
23/10:30pm 11.4 9.8 8.6 83 1.4 S 7 11 4 6 1014.2 1014.3 0.0
23/10:00pm 11.3 10.1 8.0 80 1.6 E 4 7 2 4 1014.1 1014.2 0.0
23/09:30pm 11.8 8.9 8.1 78 1.8 SSW 13 15 7 8 1014.4 1014.5 0.0
23/09:00pm 11.0 9.4 8.6 85 1.2 SW 7 9 4 5 1014.4 1014.5 0.0
23/08:30pm 11.6 9.6 8.5 81 1.5 SSE 9 11 5 6 1013.9 1014.0 0.0
23/08:00pm 11.9 9.1 8.6 80 1.7 S 13 17 7 9 1014.9 1015.0 0.0
23/07:30pm 12.4 10.0 8.5 77 2.0 S 11 13 6 7 1015.3 1015.4 0.0
23/07:00pm 12.7 10.5 9.3 80 1.7 S 11 13 6 7 1015.1 1015.2 0.0
23/06:30pm 13.0 11.8 9.4 79 1.8 SSW 6 7 3 4 1014.9 1015.0 0.0
23/06:00pm 12.5 11.4 10.0 85 1.3 SW 6 9 3 5 1014.9 1015.0 0.0
23/05:30pm 13.2 11.8 9.5 78 1.9 SE 7 9 4 5 1014.4 1014.5 0.0
23/05:00pm 13.9 12.8 10.1 78 2.0 SE 6 9 3 5 1013.9 1014.0 0.0
23/04:30pm 14.8 13.7 9.8 72 2.6 SSE 6 7 3 4 1013.8 1013.9 0.0
23/04:00pm 15.1 12.9 9.5 69 2.9 SE 11 15 6 8 1012.7 1012.8 0.0
23/03:30pm 15.5 13.6 9.0 65 3.4 SSE 9 13 5 7 1012.7 1012.8 0.0
23/03:00pm 15.7 13.5 9.4 66 3.3 SSE 11 15 6 8 1012.8 1012.9 0.0
23/02:30pm 16.1 14.1 10.0 67 3.2 SSW 11 15 6 8 1012.6 1012.7 0.0
23/02:00pm 16.1 14.4 9.8 66 3.3 SSE 9 17 5 9 1012.0 1012.1 0.0
23/01:30pm 15.8 13.4 8.8 63 3.6 SE 11 19 6 10 1012.0 1012.1 0.0
23/01:00pm 16.1 14.2 10.4 69 3.0 ESE 11 17 6 9 1012.5 1012.6 0.0
23/12:30pm 16.1 14.9 10.4 69 3.0 W 7 13 4 7 1013.5 1013.6 0.0
23/12:00pm 15.8 15.8 9.9 68 3.1 CALM 0 7 0 4 1013.9 1014.0 0.0
23/11:30am 14.6 12.7 9.2 70 2.8 SSW 9 11 5 6 1014.1 1014.2 0.0
23/11:00am 14.8 13.0 9.4 70 2.8 NNW 9 17 5 9 1014.6 1014.7 0.0
23/10:30am 14.0 12.7 9.8 76 2.2 W 7 11 4 6 1014.8 1014.9 0.0
23/10:00am 13.5 11.4 9.6 77 2.0 WSW 11 20 6 11 1014.8 1014.9 0.0
23/09:30am 12.9 10.0 9.5 80 1.7 W 15 19 8 10 1014.8 1014.9 0.0
23/09:00am 12.3 11.0 9.1 81 1.6 WNW 6 9 3 5 1014.4 1014.5 9.6
23/08:30am 11.4 11.0 9.7 89 0.9 NW 2 7 1 4 1014.3 1014.4 9.6
23/08:00am 10.7 9.5 10.2 97 0.3 NNW 7 9 4 5 1014.1 1014.2 9.6
23/07:30am 9.9 9.9 9.8 99 0.1 CALM 0 0 0 0 1013.7 1013.8 9.6
23/07:00am 9.1 7.6 9.0 99 0.0 NE 7 9 4 5 1013.3 1013.4 9.6
23/06:30am 8.9 8.6 8.8 99 0.0 CALM 0 6 0 3 1013.3 1013.4 9.6
23/06:00am 8.4 8.0 8.3 99 0.0 CALM 0 0 0 0 1012.6 1012.7 9.6
23/05:30am 8.1 6.9 8.0 99 0.0 NE 4 7 2 4 1012.3 1012.4 9.6
23/05:00am 7.8 6.5 7.7 99 0.0 NE 4 7 2 4 1012.1 1012.2 9.6
23/04:30am 8.0 7.1 7.9 99 0.0 SE 2 7 1 4 1012.2 1012.3 9.6
23/04:00am 8.0 6.4 7.9 99 0.0 S 6 7 3 4 1012.0 1012.1 9.6
23/03:30am 8.2 7.8 8.1 99 0.0 CALM 0 0 0 0 1012.0 1012.1 9.6
23/03:00am 8.1 6.5 8.0 99 0.0 SE 6 7 3 4 1011.9 1012.0 9.6
23/02:30am 8.1 5.9 8.0 99 0.0 S 9 13 5 7 1012.0 1012.1 9.6
23/02:00am 7.8 6.5 7.7 99 0.0 ESE 4 9 2 5 1012.1 1012.2 9.6
23/01:30am 8.0 6.4 7.9 99 0.0 W 6 7 3 4 1012.2 1012.3 9.4
23/01:00am 8.2 7.8 8.1 99 0.0 CALM 0 0 0 0 1012.1 1012.2 9.4
23/12:30am 8.5 7.8 8.4 99 0.0 SSW 2 6 1 3 1012.3 1012.4 9.4
23/12:00am 8.4 6.9 8.3 99 0.0 SSE 6 7 3 4 1012.4 1012.5 9.4
 
Date/Time
EST
Temp
°C
App
Temp
°C
Dew
Point
°C
Rel
Hum
%
Delta-T
°C
Wind Press
QNH
hPa
Press
MSL
hPa
Rain since
9am
mm
Dir  Spd
km/h
Gust
km/h
Spd
kts
Gust
kts
22/11:30pm 7.9 7.0 7.8 99 0.0 SW 2 7 1 4 1012.5 1012.6 9.4
22/11:00pm 8.0 7.5 7.9 99 0.0 CALM 0 0 0 0 1012.4 1012.5 9.4
22/10:30pm 8.4 7.3 8.3 99 0.0 NNE 4 7 2 4 1012.7 1012.8 9.4
22/10:00pm 8.6 8.3 8.5 99 0.0 CALM 0 0 0 0 1012.9 1013.0 9.4
22/09:30pm 8.7 8.4 8.6 99 0.0 CALM 0 0 0 0 1012.9 1013.0 9.4
22/09:00pm 8.6 8.3 8.5 99 0.0 CALM 0 0 0 0 1012.8 1012.9 9.4
22/08:30pm 8.5 7.0 8.4 99 0.0 SE 6 7 3 4 1012.9 1013.0 9.4
22/08:00pm 8.6 6.9 8.5 99 0.0 S 7 9 4 5 1012.9 1013.0 9.2
22/07:30pm 8.7 7.1 8.6 99 0.0 ESE 7 9 4 5 1012.8 1012.9 8.8
22/07:00pm 8.7 7.2 8.6 99 0.0 SSE 6 9 3 5 1012.8 1012.9 8.6
22/06:30pm 8.8 7.4 8.7 99 0.0 SSE 6 11 3 6 1012.7 1012.8 8.6
22/06:00pm 8.8 7.4 8.7 99 0.0 SSE 6 7 3 4 1012.5 1012.6 8.6
22/05:30pm 8.8 6.8 8.7 99 0.0 S 9 13 5 7 1012.5 1012.6 8.4
22/05:00pm 9.1 7.2 9.0 99 0.0 SSW 9 13 5 7 1012.3 1012.4 7.2
22/04:30pm 9.0 6.2 8.7 98 0.1 S 13 17 7 9 1012.1 1012.2 6.4
22/04:00pm 9.1 6.8 9.0 99 0.0 S 11 15 6 8 1012.4 1012.5 5.8
22/03:30pm 9.3 7.4 9.0 98 0.1 SSE 9 13 5 7 1012.7 1012.8 4.8
22/03:00pm 9.3 6.2 8.7 96 0.3 SE 15 19 8 10 1013.0 1013.1 3.6
22/02:30pm 9.2 5.8 7.8 91 0.7 SE 15 20 8 11 1013.3 1013.4 3.0
22/02:00pm 9.2 6.6 7.8 91 0.7 E 11 15 6 8 1014.2 1014.3 1.8
22/01:30pm 9.8 9.1 7.1 83 1.3 CALM 0 0 0 0 1015.0 1015.1 0.8
22/01:00pm 10.3 9.6 7.0 80 1.6 CALM 0 4 0 2 1015.0 1015.1 0.2
22/12:30pm 10.5 9.6 6.1 74 2.1 CALM 0 0 0 0 1015.4 1015.5 0.0
22/12:00pm 10.1 9.2 5.9 75 2.0 CALM 0 0 0 0 1015.7 1015.9 0.0
22/11:30am 9.8 8.1 6.0 77 1.8 ESE 4 7 2 4 1016.0 1016.2 0.0
22/11:00am 9.3 7.1 5.3 76 1.8 ESE 6 7 3 4 1016.5 1016.7 0.0
22/10:30am 9.2 8.1 5.2 76 1.8 CALM 0 6 0 3 1016.5 1016.7 0.0
22/10:00am 8.8 6.5 5.0 77 1.7 S 6 9 3 5 1016.2 1016.4 0.0
22/09:30am 7.8 5.8 6.1 89 0.8 SSW 6 9 3 5 1016.3 1016.5 0.0
22/09:00am 7.1 4.9 6.4 95 0.3 S 7 9 4 5 1016.9 1017.0 0.0
22/08:30am 6.5 4.9 6.4 99 0.0 ESE 4 9 2 5 1016.8 1016.9 0.0
22/08:00am 4.1 2.4 4.0 99 0.0 WSW 2 6 1 3 1016.8 1016.9 0.0
22/07:30am 2.4 0.4 2.3 99 0.0 NW 2 6 1 3 1016.5 1016.7 0.0
22/07:00am 1.7 0.0 1.6 99 0.0 CALM 0 0 0 0 1016.3 1016.5 0.0
22/06:30am 0.5 -2.6 0.4 99 0.0 NE 6 9 3 5 1016.7 1016.8 0.0
22/06:00am -0.3 -4.1 -0.4 99 0.0 WNW 9 11 5 6 1016.5 1016.7 0.0
22/05:30am -0.2 -3.0 -0.3 99 0.0 W 4 9 2 5 1016.2 1016.4 0.0
22/05:00am 0.6 -1.3 0.5 99 0.0 CALM 0 0 0 0 1016.4 1016.6 0.0
22/04:30am 0.9 -1.0 0.8 99 0.0 CALM 0 0 0 0 1016.5 1016.7 0.0
22/04:00am 0.9 -2.7 0.8 99 0.0 WNW 9 9 5 5 1016.4 1016.6 0.0
22/03:30am 1.8 -0.7 1.7 99 0.0 N 4 6 2 3 1016.7 1016.8 0.0
22/03:00am 1.6 -1.3 1.5 99 0.0 N 6 7 3 4 1017.2 1017.3 0.0
22/02:30am 1.4 -2.1 1.3 99 0.0 WNW 9 9 5 5 1017.0 1017.1 0.0
22/02:00am 1.8 -1.2 1.7 99 0.0 W 7 9 4 5 1017.1 1017.2 0.0
22/01:30am 1.8 0.0 1.4 97 0.2 CALM 0 2 0 1 1017.3 1017.4 0.0
22/01:00am 2.4 0.4 2.1 98 0.1 NW 2 7 1 4 1017.3 1017.4 0.0
22/12:30am 2.5 -0.2 2.4 99 0.0 NW 6 7 3 4 1017.3 1017.4 0.0
22/12:00am 1.9 -1.6 1.3 96 0.2 WNW 9 11 5 6 1017.4 1017.5 0.0
 
Date/Time
EST
Temp
°C
App
Temp
°C
Dew
Point
°C
Rel
Hum
%
Delta-T
°C
Wind Press
QNH
hPa
Press
MSL
hPa
Rain since
9am
mm
Dir  Spd
km/h
Gust
km/h
Spd
kts
Gust
kts
21/11:30pm 3.2 1.6 2.6 96 0.2 CALM 0 0 0 0 1017.7 1017.8 0.0
21/11:00pm 3.5 1.6 2.6 94 0.4 NW 2 6 1 3 1017.6 1017.7 0.0
21/10:30pm 3.3 0.0 2.3 93 0.4 W 9 11 5 6 1017.9 1018.0 0.0
21/10:00pm 5.1 3.3 3.6 90 0.6 SSE 2 7 1 4 1018.0 1018.1 0.0
21/09:30pm 5.4 2.7 3.6 88 0.8 NNE 7 9 4 5 1018.1 1018.2 0.0
21/09:00pm 6.4 5.0 3.7 83 1.2 CALM 0 6 0 3 1018.4 1018.5 0.0
21/08:30pm 7.1 4.1 4.1 81 1.3 N 9 11 5 6 1018.6 1018.7 0.0
21/08:00pm 7.3 5.0 4.8 84 1.1 N 6 9 3 5 1018.7 1018.8 0.0
21/07:30pm 8.1 5.6 4.7 79 1.5 N 7 11 4 6 1018.5 1018.6 0.0
21/07:00pm 8.1 5.7 4.1 76 1.8 NNW 6 9 3 5 1018.2 1018.3 0.0
21/06:30pm 9.2 6.2 4.0 70 2.3 W 9 11 5 6 1017.8 1017.9 0.0
21/06:00pm 10.0 7.1 4.6 69 2.4 WNW 9 13 5 7 1017.8 1017.9 0.0
21/05:30pm 12.9 11.4 3.0 51 4.4 CALM 0 0 0 0 1017.5 1017.6 0.0
21/05:00pm 15.1 13.7 3.3 45 5.4 CALM 0 0 0 0 1017.7 1017.8 0.0
21/04:30pm 17.1 14.7 1.9 36 6.9 W 4 6 2 3 1017.6 1017.7 0.0
21/04:00pm 17.2 14.8 2.4 37 6.8 NNE 4 7 2 4 1017.4 1017.5 0.0
21/03:30pm 16.9 14.4 1.4 35 6.9 NW 4 9 2 5 1017.3 1017.4 0.0
21/03:00pm 16.9 14.4 3.9 42 6.1 W 6 11 3 6 1017.4 1017.5 0.0
21/02:30pm 16.4 14.0 2.1 38 6.5 N 4 11 2 6 1017.6 1017.7 0.0

Other Formats:

Comma delimited format used in spreadsheet applications
http://www.bom.gov.au/fwo/IDN60801/IDN60801.95758.axf

JavaScript Object Notation format (JSON) in row-major order
http://www.bom.gov.au/fwo/IDN60801/IDN60801.95758.json